DAOB/TID METAR and TAF weather

Enter ICAO airport designator
Station Type Date Time Source
DAOB METAR 2019/12/11 15:00 UTC NOAA

DAOB 111500Z 27012KT 1000 NSC 12/04 Q1021


Station Type Date Time Source
DAOB Decoded METAR 2019/12/11 15:00 UTC NOAA

Tiaret, Algeria (DAOB) 35-15N 001-26E 1127M
Dec 11, 2019 - 10:00 AM EST / 2019.12.11 1500 UTC
Wind: from the W (270 degrees) at 14 MPH (12 KT):0
Visibility: less than 1 mile:0
Temperature: 53 F (12 C)
Dew Point: 39 F (4 C)
Relative Humidity: 57%
Pressure (altimeter): 30.15 in. Hg (1021 hPa)
ob: DAOB 111500Z 27012KT 1000 NSC 12/04 Q1021
cycle: 15

Station Type Date Time Source
DAOB TAF 2019/12/11 12:33 UTC NOAA

TAF DAOB 111100Z 1112/1212 28012KT 9999 FEW026 PROB30
TEMPO 1119/1124 30015G25KT FEW026CB

Example: see airport list